Time;durP1;ratioP1;P1;durP2;ratioP2;P2;SDS_P1;SDS_P2;PMS_P1;PMS_P2;Temp;Humidity;BMP_temperature;BMP_pressure;BME280_temperature;BME280_humidity;BME280_pressure;Samples;Min_cycle;Max_cycle;Signal;HPM_P1;HPM_P2
2022/05/29 00:01:49;;;;;;;;;7.50;7.25;;;;;14.36;73.74;100044.56;5054405;28;46444;-73
2022/05/29 00:04:14;;;;;;;;;7.00;6.00;;;;;14.32;73.70;100032.28;5055151;28;45480;-72
2022/05/29 00:06:43;;;;;;;;;8.33;7.00;;;;;14.32;73.45;100033.19;5054733;28;45438;-72
2022/05/29 00:09:11;;;;;;;;;6.33;6.33;;;;;14.31;73.66;100027.91;5055119;28;45478;-72
2022/05/29 00:11:37;;;;;;;;;4.00;4.00;;;;;14.27;72.77;100023.53;5054614;28;45427;-71
2022/05/29 00:14:03;;;;;;;;;4.00;4.00;;;;;14.24;72.68;100016.47;5054999;28;45525;-71
2022/05/29 00:16:30;;;;;;;;;5.00;4.67;;;;;14.22;72.91;100027.84;5055076;28;45345;-72
2022/05/29 00:18:56;;;;;;;;;5.25;3.75;;;;;14.20;73.24;100029.59;5054804;28;45539;-72
2022/05/29 00:21:22;;;;;;;;;7.25;5.00;;;;;14.12;73.20;100013.78;5054498;28;46015;-72
2022/05/29 00:23:49;;;;;;;;;4.25;4.25;;;;;14.13;73.49;100008.53;5058000;28;45418;-73
2022/05/29 00:26:19;;;;;;;;;5.00;4.67;;;;;14.15;73.51;100018.19;5058441;28;45489;-72
2022/05/29 00:28:45;;;;;;;;;4.67;4.00;;;;;14.09;72.92;100005.88;5054582;28;45521;-72
2022/05/29 00:31:12;;;;;;;;;5.25;5.00;;;;;14.09;72.79;100009.38;5056389;28;45502;-72
2022/05/29 00:33:39;;;;;;;;;6.00;5.00;;;;;13.95;73.53;99990.03;5057958;28;45519;-72
2022/05/29 00:36:06;;;;;;;;;4.50;4.50;;;;;14.02;73.64;100007.56;5048293;28;45395;-72
2022/05/29 00:38:38;;;;;;;;;4.00;3.67;;;;;13.91;73.93;99989.13;5058103;28;45393;-72
2022/05/29 00:41:17;;;;;;;;;6.00;5.33;;;;;13.97;73.73;100003.19;5057954;28;45752;-71
2022/05/29 00:43:46;;;;;;;;;6.25;5.00;;;;;13.83;74.17;99974.19;5058241;28;45327;-72
2022/05/29 00:46:12;;;;;;;;;6.33;5.00;;;;;13.83;74.50;99971.56;5057853;28;45370;-72
2022/05/29 00:48:39;;;;;;;;;5.00;5.00;;;;;13.90;74.33;99991.72;5058473;28;45693;-72
2022/05/29 00:51:10;;;;;;;;;5.75;5.75;;;;;13.72;74.07;99972.34;5054996;28;46077;-72
2022/05/29 00:53:37;;;;;;;;;6.00;5.00;;;;;13.69;74.22;99974.94;5057462;28;45398;-72
2022/05/29 00:56:08;;;;;;;;;6.00;4.00;;;;;13.73;74.05;99989.84;5057615;28;45458;-72
2022/05/29 00:58:35;;;;;;;;;5.75;5.75;;;;;13.71;74.45;99990.72;5057720;28;45552;-72
2022/05/29 01:01:02;;;;;;;;;5.00;5.00;;;;;13.64;74.91;99989.78;5057220;28;45500;-72
2022/05/29 01:03:27;;;;;;;;;5.50;4.50;;;;;13.62;74.75;99990.63;5057327;28;45540;-72
2022/05/29 01:05:53;;;;;;;;;6.50;6.00;;;;;13.43;74.59;99956.38;5057489;28;45461;-72
2022/05/29 01:08:26;;;;;;;;;5.75;5.00;;;;;13.58;75.04;99987.09;5057838;28;45446;-72
2022/05/29 01:11:16;;;;;;;;;6.00;6.00;;;;;13.60;74.81;99984.50;5055548;28;46179;-72
2022/05/29 01:14:02;;;;;;;;;6.50;5.75;;;;;13.57;75.14;99980.09;5055541;28;45347;-72
2022/05/29 01:16:49;;;;;;;;;7.00;7.00;;;;;13.60;74.63;99981.88;5055088;28;45514;-72
2022/05/29 01:19:33;;;;;;;;;9.50;7.50;;;;;13.58;74.97;99968.72;5056493;28;45296;-71
2022/05/29 01:22:08;;;;;;;;;8.00;7.00;;;;;13.56;75.45;99974.84;5054903;28;46313;-72
2022/05/29 01:25:17;;;;;;;;;7.25;6.25;;;;;13.53;75.46;99970.44;5055434;28;45503;-72
2022/05/29 01:28:06;;;;;;;;;6.50;6.00;;;;;13.51;75.24;99972.19;5056667;28;45413;-72
2022/05/29 01:30:39;;;;;;;;;7.00;7.00;;;;;13.39;75.17;99945.81;5055383;28;45379;-72
2022/05/29 01:33:39;;;;;;;;;6.00;6.00;;;;;13.52;75.30;99968.69;5054613;28;46470;-72
2022/05/29 01:36:52;;;;;;;;;5.75;5.25;;;;;13.49;75.12;99951.16;5037452;28;45478;-72
2022/05/29 01:39:30;;;;;;;;;6.00;5.75;;;;;13.49;75.08;99950.28;5035499;28;46174;-72
2022/05/29 01:42:12;;;;;;;;;4.33;4.00;;;;;13.45;73.66;99946.75;5056046;28;45489;-72
2022/05/29 01:44:52;;;;;;;;;4.33;4.33;;;;;13.41;73.58;99947.59;5055729;28;46332;-73
2022/05/29 01:47:22;;;;;;;;;4.75;4.00;;;;;13.36;73.75;99948.41;5049154;28;45539;-71
2022/05/29 01:49:53;;;;;;;;;6.33;6.00;;;;;13.31;74.42;99943.16;5054660;28;45489;-72
2022/05/29 01:52:31;;;;;;;;;5.33;5.00;;;;;13.26;75.17;99935.19;5057103;28;45780;-72
2022/05/29 01:55:26;;;;;;;;;6.75;5.75;;;;;13.24;75.52;99939.53;5055559;28;46119;-72
2022/05/29 01:57:59;;;;;;;;;5.33;4.00;;;;;13.24;75.73;99936.91;5054615;28;45470;-72
2022/05/29 02:00:26;;;;;;;;;5.00;5.00;;;;;13.25;75.25;99936.06;5056999;28;45568;-72
2022/05/29 02:03:03;;;;;;;;;4.00;4.00;;;;;13.20;74.85;99924.63;5056758;28;45338;-72
2022/05/29 02:05:34;;;;;;;;;4.25;4.25;;;;;13.23;74.69;99932.53;5055323;28;46912;-72
2022/05/29 02:08:45;;;;;;;;;5.25;5.00;;;;;13.21;75.03;99921.16;5058219;28;45516;-72
2022/05/29 02:11:15;;;;;;;;;3.75;3.75;;;;;13.20;74.82;99918.53;5056833;28;45612;-72
2022/05/29 02:14:01;;;;;;;;;5.00;5.00;;;;;13.20;75.46;99915.91;5058196;28;45425;-72
2022/05/29 02:16:30;;;;;;;;;5.00;4.50;;;;;13.12;75.00;99898.34;5057080;28;45576;-72
2022/05/29 02:19:17;;;;;;;;;4.50;4.00;;;;;13.18;74.66;99917.63;5058072;28;45446;-72
2022/05/29 02:21:48;;;;;;;;;5.25;3.50;;;;;13.16;74.88;99917.59;5058124;28;45481;-72
2022/05/29 02:24:22;;;;;;;;;5.25;5.00;;;;;13.16;75.18;99911.50;5057978;28;45254;-72
2022/05/29 02:26:55;;;;;;;;;4.75;4.00;;;;;13.14;74.91;99908.84;5058028;28;45472;-72
2022/05/29 02:29:21;;;;;;;;;4.00;4.00;;;;;13.06;74.34;99898.28;5057861;28;45217;-72
2022/05/29 02:31:56;;;;;;;;;3.50;3.50;;;;;13.12;74.33;99910.56;5058079;28;45383;-73
2022/05/29 02:35:04;;;;;;;;;3.67;3.67;;;;;13.09;74.01;99908.81;5057886;28;45259;-73
2022/05/29 02:37:36;;;;;;;;;4.75;4.75;;;;;13.09;74.39;99905.28;5057352;28;46331;-73
2022/05/29 02:40:11;;;;;;;;;5.25;5.00;;;;;13.06;74.78;99906.16;5057450;28;45403;-72
2022/05/29 02:42:48;;;;;;;;;3.00;3.00;;;;;13.00;75.00;99895.59;5057756;28;45193;-72
2022/05/29 02:45:31;;;;;;;;;5.00;5.00;;;;;13.06;75.01;99913.13;5057512;28;45220;-73
2022/05/29 02:48:11;;;;;;;;;4.00;3.75;;;;;13.02;74.77;99903.50;5057439;28;46058;-72
2022/05/29 02:50:39;;;;;;;;;5.00;4.75;;;;;12.99;75.12;99900.81;5057370;28;45368;-72
2022/05/29 02:53:12;;;;;;;;;4.00;4.00;;;;;12.95;75.40;99899.91;5057550;28;45503;-72
2022/05/29 02:55:38;;;;;;;;;4.00;4.00;;;;;12.93;75.66;99905.16;5057585;28;45628;-73
2022/05/29 02:58:09;;;;;;;;;5.25;3.75;;;;;12.89;75.85;99900.75;5057261;28;45414;-72
2022/05/29 03:00:49;;;;;;;;;4.25;4.00;;;;;12.78;76.15;99884.03;5057245;28;45479;-72
2022/05/29 03:03:38;;;;;;;;;5.50;5.00;;;;;12.88;75.88;99900.72;5057303;28;45485;-72
2022/05/29 03:06:22;;;;;;;;;3.50;3.25;;;;;12.87;76.20;99893.72;5057534;28;45613;-72
2022/05/29 03:09:00;;;;;;;;;6.00;5.00;;;;;12.76;76.09;99870.03;5057442;28;46010;-72
2022/05/29 03:11:40;;;;;;;;;6.00;5.00;;;;;12.89;76.11;99885.03;5057251;28;45515;-72
2022/05/29 03:14:32;;;;;;;;;5.00;4.75;;;;;12.89;76.13;99885.03;5056076;28;45455;-72
2022/05/29 03:17:16;;;;;;;;;5.00;4.00;;;;;12.89;75.43;99882.41;5046149;28;45426;-73
2022/05/29 03:20:01;;;;;;;;;5.25;4.00;;;;;12.80;75.07;99869.19;5057054;28;46165;-72
2022/05/29 03:22:35;;;;;;;;;3.25;3.25;;;;;12.82;75.09;99875.31;5057053;28;45343;-73
2022/05/29 03:25:10;;;;;;;;;4.00;3.00;;;;;12.80;75.07;99871.81;5057274;28;45394;-72
2022/05/29 03:27:45;;;;;;;;;4.00;4.00;;;;;12.77;75.00;99873.50;5057447;28;45447;-72
2022/05/29 03:30:23;;;;;;;;;3.00;2.75;;;;;12.70;75.08;99856.88;5056946;28;46218;-72
2022/05/29 03:32:54;;;;;;;;;4.25;3.50;;;;;12.75;75.08;99868.25;5057245;28;45377;-72
2022/05/29 03:35:22;;;;;;;;;4.25;4.25;;;;;12.72;75.09;99869.09;5057454;28;45453;-73
2022/05/29 03:37:48;;;;;;;;;7.00;5.00;;;;;12.72;75.43;99873.47;5059308;28;45425;-72
2022/05/29 03:40:14;;;;;;;;;4.50;4.00;;;;;12.72;75.62;99868.25;5056823;28;46038;-72
2022/05/29 03:42:40;;;;;;;;;4.00;4.00;;;;;12.62;75.68;99858.53;5056757;28;45402;-72
2022/05/29 03:45:06;;;;;;;;;4.00;4.00;;;;;12.54;74.82;99848.84;5056811;28;45489;-72
2022/05/29 03:47:32;;;;;;;;;3.00;3.00;;;;;12.66;74.87;99873.41;5058058;28;45519;-73
2022/05/29 03:49:58;;;;;;;;;4.00;4.00;;;;;12.48;74.98;99840.91;5057957;28;45761;-72
2022/05/29 03:52:23;;;;;;;;;3.00;3.00;;;;;12.62;75.43;99869.00;5056740;28;45392;-72
2022/05/29 03:54:52;;;;;;;;;7.00;5.25;;;;;12.60;76.45;99874.22;5056825;28;45284;-72
2022/05/29 03:57:18;;;;;;;;;3.25;3.00;;;;;12.37;75.94;99832.03;5058701;28;45438;-72
2022/05/29 03:59:43;;;;;;;;;5.00;4.50;;;;;12.52;75.97;99853.19;5060027;28;45366;-72
2022/05/29 04:02:09;;;;;;;;;5.00;5.00;;;;;12.44;76.78;99840.88;5059983;28;45409;-72
2022/05/29 04:04:35;;;;;;;;;4.00;4.00;;;;;12.52;76.66;99863.66;5060281;28;45335;-72
2022/05/29 04:07:01;;;;;;;;;4.25;3.50;;;;;12.43;76.31;99853.06;5060503;28;45379;-72
2022/05/29 04:12:13;;;;;;;;;4.00;4.00;;;;;12.43;76.45;99858.31;5059940;28;45528;-72
2022/05/29 04:14:42;;;;;;;;;4.25;4.25;;;;;12.45;76.40;99860.94;5059612;28;45439;-72
2022/05/29 04:17:10;;;;;;;;;4.00;3.00;;;;;12.48;75.47;99871.47;5060122;28;45692;-72
2022/05/29 04:19:36;;;;;;;;;4.50;4.50;;;;;12.46;75.26;99870.59;5059932;28;46073;-72
2022/05/29 04:22:09;;;;;;;;;3.00;3.00;;;;;12.44;75.53;99867.94;5059782;28;45371;-72
2022/05/29 04:24:34;;;;;;;;;3.50;3.50;;;;;12.41;75.32;99870.50;5059675;28;45428;-72
2022/05/29 04:27:00;;;;;;;;;5.00;4.00;;;;;12.46;75.75;99870.59;5059861;28;45323;-72
2022/05/29 04:29:25;;;;;;;;;2.75;2.75;;;;;12.48;75.84;99872.34;5059919;28;46066;-72
2022/05/29 04:34:36;;;;;;;;;5.25;5.25;;;;;12.50;75.27;99885.47;5059733;28;45422;-72
2022/05/29 04:37:02;;;;;;;;;7.25;7.25;;;;;12.39;74.86;99859.13;5058351;28;45479;-72
2022/05/29 04:39:30;;;;;;;;;7.25;6.00;;;;;12.50;74.79;99878.47;5059396;28;45320;-72
2022/05/29 04:41:56;;;;;;;;;4.50;4.50;;;;;12.51;74.78;99880.25;5058396;28;45459;-72
2022/05/29 04:44:21;;;;;;;;;3.00;3.00;;;;;12.53;75.02;99881.16;5059678;28;45349;-72
2022/05/29 04:46:47;;;;;;;;;4.50;4.50;;;;;12.59;75.48;99888.16;5059900;28;45460;-72
2022/05/29 04:49:12;;;;;;;;;7.75;6.00;;;;;12.53;75.74;99868.06;5059310;28;45426;-72
2022/05/29 04:51:38;;;;;;;;;7.00;5.25;;;;;12.68;76.30;99887.41;5059486;28;45532;-72
2022/05/29 04:54:03;;;;;;;;;5.50;5.50;;;;;12.70;76.08;99886.56;5058202;28;45748;-72
2022/05/29 04:56:29;;;;;;;;;5.00;4.50;;;;;12.65;75.39;99871.66;5059433;28;45543;-72
2022/05/29 04:58:54;;;;;;;;;5.00;5.00;;;;;12.52;74.99;99844.44;5059521;28;45363;-72
2022/05/29 05:01:20;;;;;;;;;5.00;5.00;;;;;12.79;74.94;99879.66;5059069;28;45457;-72
2022/05/29 05:03:46;;;;;;;;;5.50;5.00;;;;;12.74;74.10;99871.75;5059329;28;45434;-72
2022/05/29 05:06:11;;;;;;;;;5.25;5.00;;;;;12.83;74.24;99882.34;5059447;28;45533;-71
2022/05/29 05:08:37;;;;;;;;;5.00;5.00;;;;;12.94;74.21;99896.41;5057779;28;45462;-72
2022/05/29 05:11:02;;;;;;;;;3.50;3.25;;;;;12.98;73.72;99892.09;5057724;28;45415;-72
2022/05/29 05:13:28;;;;;;;;;5.00;4.00;;;;;13.02;73.45;99888.63;5059587;28;45466;-72
2022/05/29 05:16:01;;;;;;;;;7.00;5.75;;;;;13.07;73.11;99896.53;5059422;28;45397;-72
2022/05/29 05:18:27;;;;;;;;;4.00;4.00;;;;;13.10;73.05;99886.06;5059454;28;46208;-72
2022/05/29 05:20:53;;;;;;;;;5.25;4.00;;;;;13.17;73.29;99893.16;5058908;28;45489;-72
2022/05/29 05:23:18;;;;;;;;;5.00;4.00;;;;;13.23;72.68;99890.56;5059155;28;45501;-72
2022/05/29 05:25:44;;;;;;;;;6.75;4.75;;;;;13.01;72.51;99847.56;5059850;28;45224;-72
2022/05/29 05:28:09;;;;;;;;;5.00;4.50;;;;;13.28;71.84;99874.88;5058882;28;45875;-72
2022/05/29 05:30:35;;;;;;;;;4.25;3.75;;;;;13.42;71.64;99882.88;5058943;28;45545;-72
2022/05/29 05:33:00;;;;;;;;;5.00;4.50;;;;;13.53;71.54;99887.34;5059787;28;45512;-72
2022/05/29 05:35:26;;;;;;;;;5.00;4.00;;;;;13.56;71.65;99885.63;5059453;28;45403;-72
2022/05/29 05:37:51;;;;;;;;;5.00;4.50;;;;;13.65;71.82;99890.94;5058764;28;46097;-73
2022/05/29 05:40:17;;;;;;;;;4.75;4.25;;;;;13.72;71.81;99888.34;5058726;28;45311;-72
2022/05/29 05:42:43;;;;;;;;;5.00;4.75;;;;;13.78;71.89;99887.50;5058821;28;45414;-72
2022/05/29 05:45:11;;;;;;;;;5.00;4.00;;;;;13.82;71.94;99872.66;5058910;28;46152;-72
2022/05/29 05:47:37;;;;;;;;;5.25;5.00;;;;;13.98;71.95;99889.38;5057283;28;45587;-72
2022/05/29 05:50:05;;;;;;;;;3.00;3.00;;;;;14.07;71.61;99886.81;5057051;28;45308;-72
2022/05/29 05:52:30;;;;;;;;;5.75;4.00;;;;;14.09;72.15;99871.94;5058686;28;45412;-72
2022/05/29 05:54:56;;;;;;;;;4.00;4.00;;;;;14.31;71.94;99883.41;5058652;28;45477;-72
2022/05/29 05:57:21;;;;;;;;;4.75;4.00;;;;;14.43;71.30;99886.09;5058193;28;46660;-72
2022/05/29 05:59:47;;;;;;;;;5.00;5.00;;;;;14.61;71.39;99892.31;5058176;28;45247;-72
2022/05/29 06:02:13;;;;;;;;;4.00;4.00;;;;;15.86;69.70;99885.41;5058314;28;45299;-72
2022/05/29 06:04:41;;;;;;;;;4.67;4.67;;;;;19.67;59.22;99876.34;5058826;28;45513;-73
2022/05/29 06:07:08;;;;;;;;;4.33;4.33;;;;;22.87;50.58;99867.72;5058728;28;45712;-73
2022/05/29 06:09:35;;;;;;;;;3.00;3.00;;;;;25.36;44.94;99863.19;5058366;28;45576;-73
2022/05/29 06:12:02;;;;;;;;;4.00;4.00;;;;;27.27;40.67;99851.84;5057932;28;45507;-73
2022/05/29 06:14:28;;;;;;;;;3.00;2.33;;;;;28.92;38.03;99844.81;5046883;28;45364;-72
2022/05/29 06:16:54;;;;;;;;;3.00;3.00;;;;;30.35;34.48;99862.34;5045562;28;46071;-72
2022/05/29 06:19:20;;;;;;;;;5.00;4.00;;;;;31.20;32.26;99857.78;5046495;28;45564;-73
2022/05/29 06:21:45;;;;;;;;;4.00;3.33;;;;;32.32;29.85;99868.09;5046875;28;45565;-73
2022/05/29 06:24:11;;;;;;;;;3.00;3.00;;;;;31.78;31.23;99852.09;5048485;28;45508;-73
2022/05/29 06:26:36;;;;;;;;;5.67;5.67;;;;;30.19;33.15;99858.88;5046053;28;45477;-73
2022/05/29 06:29:02;;;;;;;;;4.00;3.00;;;;;29.24;35.30;99847.47;5047376;28;45581;-72
2022/05/29 06:31:29;;;;;;;;;4.00;3.33;;;;;27.49;36.97;99856.97;5046701;28;45526;-72
2022/05/29 06:33:55;;;;;;;;;3.67;3.67;;;;;26.08;40.00;99860.06;5051491;28;45559;-73
2022/05/29 06:36:24;;;;;;;;;6.00;5.33;;;;;28.13;37.44;99858.13;5062418;28;45712;-73
2022/05/29 06:38:51;;;;;;;;;4.00;4.00;;;;;27.73;38.03;99862.91;5046250;28;45438;-73
2022/05/29 06:41:20;;;;;;;;;4.33;4.33;;;;;30.62;33.71;99862.44;5048298;28;45435;-73
2022/05/29 06:43:46;;;;;;;;;5.00;4.33;;;;;33.05;30.30;99861.03;5047532;28;45520;-73
2022/05/29 06:46:13;;;;;;;;;3.67;3.67;;;;;34.62;27.50;99838.00;5046973;28;46219;-73
2022/05/29 06:48:40;;;;;;;;;5.00;3.67;;;;;35.37;26.44;99856.22;5047207;28;45489;-74
2022/05/29 06:51:24;;;;;;;;;2.33;2.00;;;;;36.38;26.43;99857.47;5047186;28;45439;-73
2022/05/29 06:53:52;;;;;;;;;4.67;2.67;;;;;37.62;23.73;99871.63;5048022;28;45431;-73
2022/05/29 06:56:18;;;;;;;;;3.67;2.67;;;;;38.58;22.98;99855.19;5047466;28;45914;-73
2022/05/29 06:58:44;;;;;;;;;3.00;2.00;;;;;39.33;22.02;99860.44;5048427;28;46023;-74
2022/05/29 07:06:59;;;;;;;;;5.33;5.00;;;;;39.51;21.68;99855.00;5043104;28;45331;-74
2022/05/29 07:09:26;;;;;;;;;5.00;4.00;;;;;36.54;24.25;99856.97;5045462;28;45491;-73
2022/05/29 07:12:05;;;;;;;;;6.67;5.00;;;;;35.77;25.42;99836.50;5047664;28;45257;-73
2022/05/29 07:14:32;;;;;;;;;4.00;3.00;;;;;34.25;26.76;99839.16;5047737;28;45463;-74
2022/05/29 07:16:57;;;;;;;;;5.00;2.00;;;;;34.04;26.94;99836.28;5045487;28;45501;-74
2022/05/29 07:19:25;;;;;;;;;2.67;2.67;;;;;35.44;25.92;99856.56;5046285;28;45468;-76
2022/05/29 07:21:56;;;;;;;;;1.67;1.67;;;;;36.15;24.38;99848.66;5056571;28;45775;-76
2022/05/29 07:24:22;;;;;;;;;4.67;3.33;;;;;36.69;24.53;99846.59;5057076;28;45399;-75
2022/05/29 07:26:47;;;;;;;;;4.00;3.00;;;;;38.12;22.29;99830.53;5056714;28;45553;-76
2022/05/29 07:29:17;;;;;;;;;4.33;4.33;;;;;38.04;22.98;99856.78;5056978;28;45351;-74
2022/05/29 07:31:42;;;;;;;;;2.00;2.00;;;;;40.05;20.75;99855.78;5055990;28;45596;-74
2022/05/29 07:34:08;;;;;;;;;2.67;2.67;;;;;40.30;20.39;99856.75;5056317;28;45363;-74
2022/05/29 07:36:33;;;;;;;;;1.67;1.67;;;;;41.17;19.42;99852.97;5039925;28;46108;-74
2022/05/29 07:39:00;;;;;;;;;3.33;3.00;;;;;41.14;20.86;99851.44;5046867;28;45408;-75
2022/05/29 07:44:11;;;;;;;;;2.67;2.00;;;;;42.27;19.37;99853.47;5044938;28;45330;-74
2022/05/29 07:46:37;;;;;;;;;4.00;3.00;;;;;42.80;17.86;99859.25;5046382;28;46245;-75
2022/05/29 07:49:03;;;;;;;;;2.33;2.33;;;;;43.72;19.20;99853.00;5044376;28;45257;-76
2022/05/29 07:51:29;;;;;;;;;3.00;3.00;;;;;44.21;16.89;99849.72;5057823;28;45735;-72
2022/05/29 07:53:57;;;;;;;;;3.33;3.00;;;;;44.67;16.25;99857.78;5046355;28;46116;-72
2022/05/29 07:56:25;;;;;;;;;3.67;2.33;;;;;45.19;16.42;99847.59;5044115;28;46236;-73
2022/05/29 07:58:50;;;;;;;;;5.00;3.67;;;;;45.67;15.52;99847.84;5046095;28;45471;-75
2022/05/29 08:01:16;;;;;;;;;2.33;2.33;;;;;46.03;15.24;99839.41;5040433;28;45463;-72
2022/05/29 08:03:42;;;;;;;;;3.00;3.00;;;;;46.28;14.65;99838.06;5046182;28;45817;-75
2022/05/29 08:06:08;;;;;;;;;3.67;3.67;;;;;46.36;14.73;99836.00;5044533;28;45499;-73
2022/05/29 08:08:34;;;;;;;;;5.00;4.00;;;;;46.43;14.69;99831.38;5045090;28;45577;-74
2022/05/29 08:11:01;;;;;;;;;4.67;4.00;;;;;46.74;14.47;99827.25;5044603;28;45426;-73
2022/05/29 08:13:28;;;;;;;;;6.00;6.00;;;;;47.06;13.74;99823.91;5050011;28;45352;-73
2022/05/29 08:15:53;;;;;;;;;4.00;3.33;;;;;47.40;13.81;99825.69;5055132;28;45845;-74
2022/05/29 08:18:19;;;;;;;;;4.50;4.50;;;;;47.70;13.79;99814.22;5055084;28;45526;-73
2022/05/29 08:20:44;;;;;;;;;1.00;1.00;;;;;48.11;13.22;99815.84;5055744;28;45541;-72
2022/05/29 08:23:10;;;;;;;;;3.67;3.33;;;;;48.35;13.05;99811.53;5045913;28;45659;-73
2022/05/29 08:31:05;;;;;;;;;3.00;3.00;;;;;48.75;12.53;99805.81;5055675;28;45448;-74
2022/05/29 08:33:35;;;;;;;;;6.00;6.00;;;;;48.91;12.28;99818.28;5055402;28;45427;-72
2022/05/29 08:36:00;;;;;;;;;3.67;3.00;;;;;49.08;12.90;99815.88;5053021;28;46338;-72
2022/05/29 08:38:27;;;;;;;;;6.00;5.33;;;;;49.43;12.04;99809.88;5051193;28;45330;-74
2022/05/29 08:41:02;;;;;;;;;3.33;3.33;;;;;49.49;12.36;99784.81;5053854;28;45525;-73
2022/05/29 08:43:38;;;;;;;;;3.67;3.67;;;;;49.70;12.07;99808.50;5057544;28;45549;-74
2022/05/29 08:46:12;;;;;;;;;4.00;3.67;;;;;49.91;11.84;99793.38;5058909;28;45445;-76
2022/05/29 08:48:58;;;;;;;;;3.33;3.33;;;;;49.82;12.28;99778.09;5059522;28;45410;-76
2022/05/29 08:51:36;;;;;;;;;6.00;5.33;;;;;50.00;12.36;99805.00;5057684;28;45371;-78
2022/05/29 08:54:17;;;;;;;;;4.33;3.67;;;;;49.99;11.53;99796.94;5057778;28;45626;-77
2022/05/29 08:56:56;;;;;;;;;3.33;3.33;;;;;49.98;11.50;99798.84;5058994;28;45603;-78
2022/05/29 08:59:48;;;;;;;;;3.00;2.00;;;;;49.55;12.52;99786.69;5059161;28;45335;-78
2022/05/29 09:02:28;;;;;;;;;2.33;2.33;;;;;49.68;11.73;99776.50;5057543;28;45528;-78
2022/05/29 09:05:00;;;;;;;;;3.33;3.00;;;;;47.42;13.50;99773.78;5059084;28;45465;-78
2022/05/29 09:07:32;;;;;;;;;3.33;2.67;;;;;46.21;13.93;99760.72;5058993;28;45534;-77
2022/05/29 09:10:13;;;;;;;;;4.33;4.33;;;;;47.38;13.06;99775.28;5060327;28;45416;-78
2022/05/29 09:12:48;;;;;;;;;4.33;3.33;;;;;48.30;12.68;99781.72;5058758;28;45376;-78
2022/05/29 09:15:27;;;;;;;;;9.00;9.00;;;;;48.76;12.22;99771.47;5057434;28;45462;-78
2022/05/29 09:17:55;;;;;;;;;5.33;5.33;;;;;49.04;11.99;99779.41;5058971;28;45334;-77
2022/05/29 09:20:30;;;;;;;;;4.00;4.00;;;;;49.28;11.39;99780.47;5057484;28;45337;-78
2022/05/29 09:23:04;;;;;;;;;4.00;4.00;;;;;49.30;10.81;99774.72;5057358;28;45347;-78
2022/05/29 09:25:42;;;;;;;;;4.33;4.33;;;;;49.44;10.92;99770.78;5057268;28;45496;-77
2022/05/29 09:28:13;;;;;;;;;5.67;4.67;;;;;49.16;11.60;99779.53;5058547;28;45535;-78
2022/05/29 09:30:40;;;;;;;;;4.33;3.67;;;;;48.74;11.34;99760.59;5057410;28;45300;-78
2022/05/29 09:33:15;;;;;;;;;5.67;5.33;;;;;48.50;11.02;99753.06;5057394;28;45319;-78
2022/05/29 09:35:58;;;;;;;;;2.67;2.67;;;;;47.93;11.91;99764.81;5058569;28;45314;-78
2022/05/29 09:38:33;;;;;;;;;4.67;3.67;;;;;47.11;12.36;99772.47;5058141;28;45418;-79
2022/05/29 09:41:06;;;;;;;;;3.67;3.67;;;;;46.69;12.54;99770.91;5058281;28;45449;-77
2022/05/29 09:43:31;;;;;;;;;5.00;4.33;;;;;46.27;12.56;99765.41;5058307;28;45243;-78
2022/05/29 09:46:20;;;;;;;;;3.67;3.67;;;;;46.18;12.37;99748.19;5056542;28;45443;-78
2022/05/29 09:52:07;;;;;;;;;5.00;4.33;;;;;44.98;13.38;99762.97;5057984;28;45354;-78
2022/05/29 09:54:43;;;;;;;;;5.00;5.00;;;;;45.23;12.86;99747.72;5055529;28;45752;-78
2022/05/29 09:57:13;;;;;;;;;3.00;2.33;;;;;45.32;12.51;99726.38;5057219;28;45514;-78
2022/05/29 09:59:44;;;;;;;;;5.00;3.67;;;;;45.47;12.48;99731.81;5058127;28;45862;-77
2022/05/29 10:02:45;;;;;;;;;25.25;25.00;;;;;45.95;12.99;99731.91;5073365;28;45552;-78
2022/05/29 10:05:29;;;;;;;;;1.67;1.67;;;;;45.29;12.32;99745.22;5057939;28;45368;-78
2022/05/29 10:07:58;;;;;;;;;4.33;4.33;;;;;45.19;13.19;99735.38;5057458;28;45418;-78
2022/05/29 10:10:31;;;;;;;;;2.33;2.33;;;;;45.29;12.66;99728.69;5056542;28;45397;-77
2022/05/29 10:12:58;;;;;;;;;3.00;2.67;;;;;45.53;12.43;99730.16;5056723;28;45543;-78
2022/05/29 10:15:27;;;;;;;;;2.00;2.00;;;;;44.97;12.36;99730.94;5056316;28;45552;-78
2022/05/29 10:17:54;;;;;;;;;4.00;3.67;;;;;44.41;13.19;99721.44;5057503;28;45319;-77
2022/05/29 10:20:39;;;;;;;;;2.67;2.67;;;;;43.84;13.62;99716.69;5056053;28;47614;-77
2022/05/29 10:23:27;;;;;;;;;2.67;2.00;;;;;43.76;13.51;99725.88;5057545;28;45558;-77
2022/05/29 10:26:03;;;;;;;;;3.00;3.00;;;;;42.58;13.24;99707.13;5057499;28;45497;-76
2022/05/29 10:28:37;;;;;;;;;2.00;2.00;;;;;41.05;14.80;99650.59;5073281;28;45513;-77
2022/05/29 10:31:19;;;;;;;;;3.33;3.33;;;;;40.70;15.44;99718.31;5056494;28;45432;-78
2022/05/29 10:34:22;;;;;;;;;4.67;4.67;;;;;39.93;16.10;99706.63;5056276;28;45496;-78
2022/05/29 10:36:48;;;;;;;;;3.33;3.33;;;;;39.33;16.39;99691.06;5056601;28;45477;-77
2022/05/29 10:39:22;;;;;;;;;4.00;4.00;;;;;40.14;15.87;99693.38;5058284;28;45544;-78
2022/05/29 10:41:49;;;;;;;;;3.00;3.00;;;;;40.89;15.23;99713.59;5057150;28;45969;-77
2022/05/29 10:44:57;;;;;;;;;2.67;2.67;;;;;41.08;14.69;99701.44;5058124;28;45434;-77
2022/05/29 10:47:41;;;;;;;;;16.00;15.00;;;;;40.98;14.47;99676.94;4979716;28;45661;-78
2022/05/29 10:50:23;;;;;;;;;2.00;2.00;;;;;41.07;14.49;99697.84;4995240;28;45611;-78
2022/05/29 10:53:01;;;;;;;;;4.00;4.00;;;;;41.37;15.07;99694.59;5050201;28;46447;-77
2022/05/29 10:55:54;;;;;;;;;3.00;3.00;;;;;40.88;14.41;99688.06;5057631;28;45374;-78
2022/05/29 10:58:33;;;;;;;;;4.33;4.33;;;;;40.34;15.25;99688.50;5057426;28;45334;-78
2022/05/29 11:04:25;;;;;;;;;5.00;5.00;;;;;40.29;15.01;99674.47;5056701;28;45247;-77
2022/05/29 11:07:00;;;;;;;;;3.67;3.00;;;;;40.36;15.41;99666.44;5055054;28;45345;-77
2022/05/29 11:09:28;;;;;;;;;2.00;2.00;;;;;38.25;16.13;99674.72;5056498;28;45417;-75
2022/05/29 11:12:03;;;;;;;;;3.00;3.00;;;;;36.23;18.52;99669.38;5055531;28;45434;-77
2022/05/29 11:14:55;;;;;;;;;2.33;2.33;;;;;34.75;19.83;99658.84;5056575;28;45363;-76
2022/05/29 11:17:51;;;;;;;;;3.33;3.33;;;;;33.61;20.56;99665.44;5055121;28;45541;-76
2022/05/29 11:20:35;;;;;;;;;2.67;2.33;;;;;31.79;21.92;99662.94;5057137;28;45437;-76
2022/05/29 11:23:16;;;;;;;;;5.00;4.67;;;;;31.32;23.29;99664.47;5056495;28;45361;-76
2022/05/29 11:25:42;;;;;;;;;8.33;8.33;;;;;30.96;24.32;99657.09;5055903;28;45507;-76
2022/05/29 11:28:42;;;;;;;;;5.00;4.33;;;;;30.60;25.54;99640.63;5056625;28;45339;-77
2022/05/29 11:31:41;;;;;;;;;1.33;1.33;;;;;30.38;25.51;99652.00;5056611;28;45462;-76
2022/05/29 11:34:07;;;;;;;;;9.67;9.33;;;;;29.65;26.62;99642.28;5056702;28;45555;-77
2022/05/29 11:36:57;;;;;;;;;4.00;4.00;;;;;29.28;27.44;99643.72;5055172;28;45449;-76
2022/05/29 11:39:32;;;;;;;;;4.33;4.33;;;;;28.99;28.17;99649.06;5056708;28;45431;-76
2022/05/29 11:42:25;;;;;;;;;4.00;4.00;;;;;28.62;27.24;99636.97;5056545;28;45318;-76
2022/05/29 11:45:00;;;;;;;;;4.00;3.67;;;;;27.95;27.70;99646.13;5050077;28;45398;-75
2022/05/29 11:53:28;;;;;;;;;3.33;3.33;;;;;27.61;29.43;99643.53;5056839;28;45326;-75
2022/05/29 11:55:58;;;;;;;;;3.00;3.00;;;;;27.52;29.19;99642.25;5055530;28;45331;-75
2022/05/29 11:58:38;;;;;;;;;4.00;4.00;;;;;27.36;28.64;99651.09;5056574;28;45471;-75
2022/05/29 12:01:13;;;;;;;;;4.00;4.00;;;;;26.96;29.18;99626.38;5056242;28;45370;-74
2022/05/29 12:04:03;;;;;;;;;4.00;4.00;;;;;27.09;29.29;99644.50;5056051;28;45383;-75
2022/05/29 12:06:37;;;;;;;;;3.00;3.00;;;;;26.86;29.77;99640.34;5055927;28;45734;-74
2022/05/29 12:09:15;;;;;;;;;3.00;3.00;;;;;26.98;29.47;99640.56;5056173;28;45388;-74
2022/05/29 12:11:59;;;;;;;;;4.33;3.67;;;;;27.09;30.13;99618.56;5056227;28;45413;-75
2022/05/29 12:14:27;;;;;;;;;4.00;4.00;;;;;27.27;29.83;99627.47;5056396;28;45524;-75
2022/05/29 12:17:05;;;;;;;;;4.00;3.00;;;;;27.12;29.92;99598.78;5054675;28;45563;-75
2022/05/29 12:19:45;;;;;;;;;4.33;4.33;;;;;27.21;29.89;99611.66;5058354;28;46651;-75
2022/05/29 12:22:14;;;;;;;;;3.00;3.00;;;;;27.28;29.35;99602.38;5059516;28;45440;-74
2022/05/29 12:24:47;;;;;;;;;4.00;4.00;;;;;27.28;29.75;99598.84;5059631;28;45311;-75
2022/05/29 12:27:25;;;;;;;;;7.00;5.00;;;;;27.22;29.41;99610.75;5059797;28;45433;-74
2022/05/29 12:30:04;;;;;;;;;3.33;3.33;;;;;27.05;29.19;99584.81;5060326;28;45497;-74